createdAt,value
2017-06-22T00:00:49.166Z,12.13
2017-06-22T00:03:46.610Z,12.47
2017-06-22T00:06:44.103Z,12.27
2017-06-22T00:09:41.671Z,13.03
2017-06-22T00:12:39.213Z,12.70
2017-06-22T00:15:36.730Z,12.68
2017-06-22T00:18:34.030Z,12.30
2017-06-22T00:21:31.319Z,11.15
2017-06-22T00:24:28.706Z,12.60
2017-06-22T00:27:26.222Z,12.47
2017-06-22T00:30:23.616Z,10.47
2017-06-22T00:33:21.178Z,10.93
2017-06-22T00:36:18.569Z,10.97
2017-06-22T00:39:16.142Z,10.40
2017-06-22T00:42:14.451Z,9.63
2017-06-22T00:45:11.878Z,10.77
2017-06-22T00:48:09.402Z,9.75
2017-06-22T00:51:06.893Z,12.02
2017-06-22T00:54:04.430Z,9.50
2017-06-22T00:57:01.898Z,9.82
2017-06-22T00:59:59.386Z,11.32
2017-06-22T01:02:56.853Z,11.07
2017-06-22T01:05:54.402Z,11.32
2017-06-22T01:08:51.943Z,12.23
2017-06-22T01:11:49.523Z,9.40
2017-06-22T01:14:46.901Z,13.00
2017-06-22T01:33:32.678Z,18.62
2017-06-22T01:35:58.718Z,18.87
2017-06-22T01:38:24.762Z,18.15
2017-06-22T01:40:50.826Z,19.00
2017-06-22T01:43:16.870Z,16.60
2017-06-22T01:45:42.910Z,16.12
2017-06-22T01:48:08.950Z,15.13
2017-06-22T01:50:35.009Z,15.77
2017-06-22T01:53:01.085Z,15.73
2017-06-22T01:55:27.141Z,15.95
2017-06-22T01:57:53.166Z,16.23
2017-06-22T02:00:19.198Z,16.08
2017-06-22T02:02:51.365Z,16.08
2017-06-22T02:05:23.516Z,14.87
2017-06-22T02:07:49.562Z,16.35
2017-06-22T02:10:15.598Z,16.10
2017-06-22T02:12:41.638Z,16.23
2017-06-22T02:15:07.690Z,14.40
2017-06-22T02:17:33.733Z,15.45
2017-06-22T02:20:02.036Z,15.35
2017-06-22T02:22:28.065Z,15.95
2017-06-22T02:24:54.097Z,15.93
2017-06-22T02:27:20.137Z,16.00
2017-06-22T02:29:46.187Z,15.07
2017-06-22T02:32:12.247Z,17.20
2017-06-22T02:34:38.277Z,15.63
2017-06-22T02:37:04.310Z,16.50
2017-06-22T02:39:30.350Z,16.50
2017-06-22T02:41:56.387Z,17.10
2017-06-22T02:44:22.418Z,15.98
2017-06-22T02:46:55.278Z,16.23
2017-06-22T02:49:21.326Z,13.77
2017-06-22T02:51:48.108Z,17.35
2017-06-22T02:54:14.155Z,16.92
2017-06-22T02:56:40.184Z,18.40
2017-06-22T02:59:06.230Z,17.90
2017-06-22T03:01:32.262Z,16.60
2017-06-22T03:03:58.294Z,17.52
2017-06-22T03:06:24.341Z,16.42
2017-06-22T03:08:50.377Z,19.30
2017-06-22T03:11:16.409Z,17.98
2017-06-22T03:13:42.446Z,17.45
2017-06-22T03:16:08.477Z,18.00
2017-06-22T03:18:34.513Z,18.15
2017-06-22T03:21:00.558Z,17.98
2017-06-22T03:23:26.598Z,17.73
2017-06-22T03:25:52.626Z,15.27
2017-06-22T03:28:18.666Z,15.90
2017-06-22T03:30:44.701Z,16.15
2017-06-22T03:33:10.743Z,17.05
2017-06-22T03:35:36.792Z,16.67
2017-06-22T03:38:02.822Z,16.40
2017-06-22T03:40:28.858Z,13.02
2017-06-22T03:42:54.891Z,15.07
2017-06-22T03:45:20.931Z,11.40
2017-06-22T03:47:47.713Z,14.52
2017-06-22T03:50:13.765Z,12.23
2017-06-22T03:52:39.793Z,13.52
2017-06-22T03:55:05.830Z,10.70
2017-06-22T03:57:31.943Z,12.00
2017-06-22T03:59:57.978Z,10.23
2017-06-22T04:02:24.005Z,13.23
2017-06-22T04:04:50.041Z,14.15
2017-06-22T04:07:16.086Z,14.25
2017-06-22T04:09:42.865Z,13.52
2017-06-22T04:12:08.894Z,14.55
2017-06-22T04:14:34.918Z,13.07
2017-06-22T04:17:00.946Z,13.52
2017-06-22T04:19:26.997Z,15.43
2017-06-22T04:21:53.026Z,15.15
2017-06-22T04:24:19.062Z,15.45
2017-06-22T04:26:45.098Z,13.88
2017-06-22T04:29:11.134Z,13.35
2017-06-22T04:31:37.190Z,14.82
2017-06-22T04:34:03.241Z,10.50
2017-06-22T04:36:44.255Z,14.27
2017-06-22T04:39:10.331Z,13.90
2017-06-22T04:41:36.374Z,14.55
2017-06-22T04:44:02.411Z,15.20
2017-06-22T04:46:43.422Z,12.68
2017-06-22T04:49:10.218Z,12.00
2017-06-22T04:51:36.265Z,13.02
2017-06-22T04:54:02.289Z,11.23
2017-06-22T04:56:28.326Z,11.07
2017-06-22T04:58:54.382Z,11.85
2017-06-22T05:01:20.427Z,10.70
2017-06-22T05:03:46.466Z,11.85
2017-06-22T05:06:12.509Z,9.70
2017-06-22T05:08:38.537Z,11.93
2017-06-22T05:11:04.573Z,11.30
2017-06-22T05:13:30.621Z,12.88
2017-06-22T05:15:56.681Z,11.12
2017-06-22T05:18:22.724Z,10.75
2017-06-22T05:20:48.754Z,10.32
2017-06-22T05:23:14.794Z,12.48
2017-06-22T05:25:40.833Z,11.18
2017-06-22T05:28:06.865Z,12.77
2017-06-22T05:30:33.646Z,11.75
2017-06-22T05:32:59.673Z,14.18
2017-06-22T05:35:25.706Z,14.98
2017-06-22T05:37:51.746Z,15.98
2017-06-22T05:40:17.782Z,11.77
2017-06-22T05:42:43.831Z,13.45
2017-06-22T05:45:09.869Z,17.27
2017-06-22T05:47:36.654Z,10.38
2017-06-22T05:50:02.715Z,12.07
2017-06-22T05:52:28.749Z,16.42
2017-06-22T05:54:54.806Z,12.45
2017-06-22T05:57:20.846Z,10.98
2017-06-22T05:59:46.897Z,11.95
2017-06-22T06:02:12.937Z,16.85
2017-06-22T06:04:39.023Z,17.63
2017-06-22T06:07:05.071Z,19.52
2017-06-22T06:09:31.109Z,16.17
2017-06-22T06:11:57.149Z,18.05
2017-06-22T06:14:23.189Z,18.00
2017-06-22T06:16:49.242Z,21.05
2017-06-22T06:19:15.286Z,13.77
2017-06-22T06:21:41.326Z,14.13
2017-06-22T06:24:07.367Z,21.50
2017-06-22T06:26:33.402Z,13.38
2017-06-22T06:28:59.438Z,20.17
2017-06-22T06:31:25.466Z,18.27
2017-06-22T06:33:52.281Z,14.73
2017-06-22T06:36:18.333Z,14.07
2017-06-22T06:38:44.374Z,16.60
2017-06-22T06:41:10.414Z,17.00
2017-06-22T06:43:36.465Z,19.63
2017-06-22T06:46:02.501Z,21.62
2017-06-22T06:48:28.543Z,20.97
2017-06-22T06:50:54.598Z,22.07
2017-06-22T06:53:20.679Z,23.83
2017-06-22T06:55:46.722Z,22.53
2017-06-22T06:58:12.785Z,22.62
2017-06-22T07:00:39.602Z,22.50
2017-06-22T07:03:06.454Z,21.07
2017-06-22T07:05:33.250Z,21.93
2017-06-22T07:07:59.306Z,20.42
2017-06-22T07:10:25.342Z,23.47
2017-06-22T07:12:51.389Z,20.93
2017-06-22T07:15:18.182Z,20.23
2017-06-22T07:17:44.225Z,22.10
2017-06-22T07:20:10.311Z,22.70
2017-06-22T07:22:36.411Z,22.67
2017-06-22T07:25:03.611Z,24.63
2017-06-22T07:27:29.694Z,22.40
2017-06-22T07:29:56.485Z,23.53
2017-06-22T07:32:22.531Z,22.07
2017-06-22T07:34:48.578Z,23.67
2017-06-22T07:37:14.638Z,20.80
2017-06-22T07:39:40.722Z,21.27
2017-06-22T07:42:06.774Z,22.80
2017-06-22T07:44:32.830Z,24.73
2017-06-22T07:46:59.050Z,25.23
2017-06-22T07:49:25.117Z,23.10
2017-06-22T07:51:51.179Z,24.53
2017-06-22T07:54:17.224Z,20.77
2017-06-22T07:56:43.271Z,20.73
2017-06-22T07:59:09.321Z,22.93
2017-06-22T08:01:35.373Z,24.47
2017-06-22T08:04:02.178Z,22.70
2017-06-22T08:06:28.234Z,23.67
2017-06-22T08:08:55.249Z,21.37
2017-06-22T08:11:21.313Z,22.00
2017-06-22T08:13:47.374Z,23.37
2017-06-22T08:16:14.150Z,23.67
2017-06-22T08:18:40.230Z,22.17
2017-06-22T08:21:06.292Z,21.90
2017-06-22T08:23:32.346Z,23.43
2017-06-22T08:25:58.402Z,22.13
2017-06-22T08:28:24.497Z,20.43
2017-06-22T08:30:51.323Z,19.13
2017-06-22T08:33:17.443Z,20.27
2017-06-22T08:35:43.502Z,21.00
2017-06-22T08:38:09.553Z,17.93
2017-06-22T08:40:35.622Z,18.20
2017-06-22T08:43:01.662Z,20.37
2017-06-22T08:45:27.709Z,20.70
2017-06-22T08:47:53.757Z,21.57
2017-06-22T08:50:19.814Z,19.23
2017-06-22T08:52:46.055Z,18.33
2017-06-22T08:55:12.105Z,21.90
2017-06-22T08:57:38.169Z,20.53
2017-06-22T09:00:04.213Z,20.20
2017-06-22T09:02:30.286Z,17.97
2017-06-22T09:04:56.349Z,20.20
2017-06-22T09:07:22.411Z,18.60
2017-06-22T09:09:48.471Z,18.13
2017-06-22T09:12:14.538Z,17.93
2017-06-22T09:14:40.885Z,18.77
2017-06-22T09:17:06.922Z,18.57
2017-06-22T09:19:32.962Z,19.17
2017-06-22T09:21:58.989Z,17.77
2017-06-22T09:24:25.037Z,17.53
2017-06-22T09:26:51.821Z,17.70
2017-06-22T09:29:17.874Z,18.80
2017-06-22T09:31:43.906Z,17.70
2017-06-22T09:34:09.950Z,17.00
2017-06-22T09:36:36.044Z,17.57
2017-06-22T09:39:02.160Z,18.70
2017-06-22T09:41:28.195Z,17.70
2017-06-22T09:43:54.244Z,18.50
2017-06-22T09:46:20.298Z,16.80
2017-06-22T09:48:46.341Z,16.10
2017-06-22T09:51:12.378Z,16.20
2017-06-22T09:53:38.398Z,16.77
2017-06-22T09:56:04.438Z,15.63
2017-06-22T09:58:30.594Z,15.63
2017-06-22T10:00:56.633Z,16.73
2017-06-22T10:03:22.686Z,15.97
2017-06-22T10:05:48.782Z,16.13
2017-06-22T10:08:15.606Z,14.90
2017-06-22T10:10:41.647Z,14.10
2017-06-22T10:13:07.686Z,13.07
2017-06-22T10:15:33.719Z,14.03
2017-06-22T10:18:00.502Z,15.73
2017-06-22T10:20:26.614Z,14.60
2017-06-22T10:22:52.662Z,13.30
2017-06-22T10:25:18.719Z,12.63
2017-06-22T10:27:44.749Z,13.00
2017-06-22T10:30:10.785Z,13.60
2017-06-22T10:32:36.833Z,15.63
2017-06-22T10:35:02.875Z,13.93
2017-06-22T10:37:28.919Z,15.47
2017-06-22T10:39:55.001Z,14.70
2017-06-22T10:42:21.162Z,14.03
2017-06-22T10:44:52.329Z,12.47
2017-06-22T10:47:18.362Z,13.47
2017-06-22T10:49:44.426Z,13.10
2017-06-22T10:52:10.465Z,11.20
2017-06-22T10:54:36.513Z,13.13
2017-06-22T10:57:02.559Z,13.20
2017-06-22T10:59:28.607Z,13.57
2017-06-22T11:01:54.694Z,13.20
2017-06-22T11:04:20.939Z,13.33
2017-06-22T11:06:46.994Z,13.70
2017-06-22T11:09:13.077Z,14.00
2017-06-22T11:11:39.134Z,15.23
2017-06-22T11:14:05.206Z,11.97
2017-06-22T11:16:31.258Z,14.30
2017-06-22T11:18:57.310Z,10.77
2017-06-22T11:21:23.562Z,11.30
2017-06-22T11:23:49.630Z,13.33
2017-06-22T11:26:16.564Z,12.30
2017-06-22T11:28:42.622Z,11.07
2017-06-22T11:31:08.705Z,15.63
2017-06-22T11:33:35.549Z,12.90
2017-06-22T11:36:02.354Z,12.60
2017-06-22T11:38:28.411Z,13.30
2017-06-22T11:40:54.481Z,13.10
2017-06-22T11:43:20.542Z,15.17
2017-06-22T11:45:46.606Z,11.63
2017-06-22T11:48:12.753Z,12.83
2017-06-22T11:50:38.818Z,12.93
2017-06-22T11:53:04.857Z,11.10
2017-06-22T11:55:30.891Z,11.50
2017-06-22T11:57:56.958Z,13.00
2017-06-22T12:00:23.003Z,13.43
2017-06-22T12:02:49.034Z,12.00
2017-06-22T12:05:15.070Z,12.17
2017-06-22T12:07:41.098Z,12.87
2017-06-22T12:10:07.286Z,13.43
2017-06-22T12:12:33.332Z,10.20
2017-06-22T12:14:59.394Z,13.13
2017-06-22T12:17:25.438Z,11.00
2017-06-22T12:19:51.488Z,10.83
2017-06-22T12:22:17.521Z,11.30
2017-06-22T12:24:43.554Z,10.50
2017-06-22T12:27:09.589Z,10.50
2017-06-22T12:29:35.630Z,11.20
2017-06-22T12:32:02.561Z,10.47
2017-06-22T12:34:28.602Z,14.47
2017-06-22T12:36:54.658Z,11.67
2017-06-22T12:39:20.690Z,11.40
2017-06-22T12:41:47.462Z,17.70
2017-06-22T12:44:13.498Z,11.63
2017-06-22T12:46:39.538Z,11.63
2017-06-22T12:49:05.590Z,10.60
2017-06-22T12:51:31.642Z,10.00
2017-06-22T12:53:58.647Z,9.90
2017-06-22T12:56:24.702Z,11.57
2017-06-22T12:58:50.785Z,9.90
2017-06-22T13:01:16.822Z,10.30
2017-06-22T13:03:42.859Z,8.90
2017-06-22T13:06:08.906Z,9.90
2017-06-22T13:08:35.690Z,9.70
2017-06-22T13:11:01.735Z,9.90
2017-06-22T13:13:27.789Z,10.03
2017-06-22T13:15:53.990Z,11.03
2017-06-22T13:18:20.047Z,11.37
2017-06-22T13:20:46.125Z,10.73
2017-06-22T13:23:12.170Z,9.93
2017-06-22T13:25:38.327Z,10.90
2017-06-22T13:28:05.869Z,10.43
2017-06-22T13:30:31.945Z,9.87
2017-06-22T13:32:58.008Z,11.33
2017-06-22T13:35:24.061Z,10.27
2017-06-22T13:37:51.081Z,11.33
2017-06-22T13:40:17.122Z,10.30
2017-06-22T13:42:43.161Z,10.80
2017-06-22T13:45:09.240Z,10.83
2017-06-22T13:47:35.298Z,19.80
2017-06-22T13:50:01.373Z,12.17
2017-06-22T13:52:27.398Z,10.20
2017-06-22T13:54:53.450Z,9.20
2017-06-22T13:57:34.457Z,10.77
2017-06-22T14:00:00.550Z,10.77
2017-06-22T14:02:26.587Z,9.17
2017-06-22T14:04:52.641Z,11.10
2017-06-22T14:07:18.708Z,9.43
2017-06-22T14:09:59.806Z,10.20
2017-06-22T14:12:25.854Z,10.33
2017-06-22T14:14:51.912Z,10.07
2017-06-22T14:17:18.683Z,9.67
2017-06-22T14:19:44.739Z,10.33
2017-06-22T14:22:10.764Z,10.97
2017-06-22T14:24:36.810Z,10.00
2017-06-22T14:27:02.850Z,10.17
2017-06-22T14:29:28.874Z,9.97
2017-06-22T14:31:55.071Z,9.83
2017-06-22T14:34:21.118Z,10.07
2017-06-22T14:36:47.146Z,10.60
2017-06-22T14:39:13.213Z,10.90
2017-06-22T14:41:39.257Z,9.30
2017-06-22T14:44:05.281Z,9.60
2017-06-22T14:46:31.332Z,11.63
2017-06-22T14:48:57.365Z,9.67
2017-06-22T14:51:23.414Z,11.50
2017-06-22T14:53:50.325Z,10.50
2017-06-22T14:56:16.382Z,14.37
2017-06-22T14:58:42.434Z,10.97
2017-06-22T15:01:08.466Z,10.67
2017-06-22T15:03:35.018Z,11.43
2017-06-22T15:06:01.051Z,11.13
2017-06-22T15:08:27.970Z,10.77
2017-06-22T15:10:54.022Z,9.80
2017-06-22T15:13:20.064Z,10.57
2017-06-22T15:15:47.034Z,10.33
2017-06-22T15:18:13.849Z,11.00
2017-06-22T15:20:39.886Z,10.00
2017-06-22T15:23:20.878Z,11.57
2017-06-22T15:25:47.695Z,11.60
2017-06-22T15:28:13.818Z,12.03
2017-06-22T15:30:39.856Z,12.97
2017-06-22T15:33:05.910Z,11.00
2017-06-22T15:35:31.941Z,12.93
2017-06-22T15:37:58.013Z,11.57
2017-06-22T15:40:24.052Z,11.43
2017-06-22T15:42:50.090Z,12.23
2017-06-22T15:45:16.181Z,12.13
2017-06-22T15:47:42.224Z,11.90
2017-06-22T15:50:08.266Z,10.90
2017-06-22T15:52:34.326Z,11.83
2017-06-22T15:55:01.117Z,13.60
2017-06-22T15:57:27.144Z,13.37
2017-06-22T15:59:53.457Z,11.33
2017-06-22T16:02:19.558Z,9.97
2017-06-22T16:04:46.330Z,12.70
2017-06-22T16:07:12.383Z,11.97
2017-06-22T16:09:38.409Z,14.80
2017-06-22T16:12:04.449Z,15.10
2017-06-22T16:14:30.495Z,13.90
2017-06-22T16:16:56.549Z,13.87
2017-06-22T16:19:22.594Z,14.67
2017-06-22T16:21:48.658Z,13.90
2017-06-22T16:24:14.681Z,12.60
2017-06-22T16:26:40.726Z,12.97
2017-06-22T16:29:06.761Z,14.37
2017-06-22T16:31:32.821Z,14.53
2017-06-22T16:33:58.862Z,13.43
2017-06-22T16:36:24.894Z,14.20
2017-06-22T16:38:50.941Z,14.00
2017-06-22T16:41:16.974Z,13.63
2017-06-22T16:43:43.022Z,12.77
2017-06-22T16:46:09.822Z,15.27
2017-06-22T16:48:36.701Z,14.10
2017-06-22T16:51:03.479Z,13.40
2017-06-22T16:53:29.526Z,13.13
2017-06-22T16:55:55.561Z,13.77
2017-06-22T16:58:21.638Z,15.73
2017-06-22T17:00:47.691Z,15.10
2017-06-22T17:03:13.759Z,14.20
2017-06-22T17:05:39.810Z,14.90
2017-06-22T17:08:05.885Z,12.83
2017-06-22T17:10:31.933Z,16.33
2017-06-22T17:12:58.026Z,14.83
2017-06-22T17:15:31.094Z,15.13
2017-06-22T17:17:57.150Z,13.87
2017-06-22T17:20:23.210Z,14.93
2017-06-22T17:22:49.254Z,14.20
2017-06-22T17:25:15.307Z,14.60
2017-06-22T17:27:41.354Z,16.40
2017-06-22T17:30:07.393Z,14.63
2017-06-22T17:32:33.517Z,13.50
2017-06-22T17:34:59.574Z,13.47
2017-06-22T17:37:25.631Z,15.20
2017-06-22T17:39:51.689Z,15.40
2017-06-22T17:42:17.741Z,14.40
2017-06-22T17:44:43.790Z,14.00
2017-06-22T17:47:09.841Z,15.07
2017-06-22T17:49:35.898Z,14.90
2017-06-22T17:52:01.941Z,14.60
2017-06-22T17:54:28.005Z,14.27
2017-06-22T17:56:54.072Z,14.50
2017-06-22T17:59:20.131Z,16.93
2017-06-22T18:01:46.923Z,12.90
2017-06-22T18:04:12.960Z,14.90
2017-06-22T18:06:39.008Z,13.97
2017-06-22T18:09:05.052Z,14.50
2017-06-22T18:11:31.846Z,14.13
2017-06-22T18:13:57.898Z,12.90
2017-06-22T18:16:23.971Z,14.27
2017-06-22T18:18:50.017Z,14.83
2017-06-22T18:21:16.067Z,13.83
2017-06-22T18:23:42.121Z,14.40
2017-06-22T18:26:08.179Z,14.60
2017-06-22T18:28:34.239Z,14.37
2017-06-22T18:31:15.240Z,14.97
2017-06-22T18:33:41.304Z,15.27
2017-06-22T18:36:07.386Z,14.57
2017-06-22T18:38:33.453Z,15.13
2017-06-22T18:40:59.510Z,14.33
2017-06-22T18:43:25.564Z,14.03
2017-06-22T18:45:51.626Z,14.33
2017-06-22T18:48:17.689Z,14.60
2017-06-22T18:50:43.753Z,15.40
2017-06-22T18:53:09.794Z,15.70
2017-06-22T18:55:36.597Z,14.17
2017-06-22T18:58:02.630Z,14.70
2017-06-22T19:00:28.689Z,16.60
2017-06-22T19:02:54.838Z,14.70
2017-06-22T19:05:20.886Z,16.47
2017-06-22T19:07:46.917Z,14.80
2017-06-22T19:10:12.948Z,15.60
2017-06-22T19:12:38.981Z,15.30
2017-06-22T19:15:05.022Z,17.13
2017-06-22T19:17:31.073Z,14.27
2017-06-22T19:19:57.114Z,14.40
2017-06-22T19:22:23.149Z,14.67
2017-06-22T19:24:49.193Z,15.17
2017-06-22T19:27:15.233Z,16.37
2017-06-22T19:29:41.278Z,15.40
2017-06-22T19:32:07.325Z,15.70
2017-06-22T19:34:34.106Z,15.73
2017-06-22T19:37:00.139Z,14.87
2017-06-22T19:39:26.184Z,14.30
2017-06-22T19:41:52.246Z,15.63
2017-06-22T19:44:19.025Z,14.90
2017-06-22T19:46:45.109Z,13.97
2017-06-22T19:49:11.137Z,16.60
2017-06-22T19:51:37.182Z,16.37
2017-06-22T19:54:03.248Z,16.03
2017-06-22T19:56:29.309Z,16.80
2017-06-22T19:58:55.342Z,16.70
2017-06-22T20:01:21.418Z,16.67
2017-06-22T20:03:47.452Z,16.90
2017-06-22T20:06:13.489Z,16.63
2017-06-22T20:08:39.542Z,16.90
2017-06-22T20:11:05.578Z,16.30
2017-06-22T20:13:31.629Z,17.10
2017-06-22T20:15:57.685Z,15.20
2017-06-22T20:18:23.738Z,18.27
2017-06-22T20:20:49.770Z,17.17
2017-06-22T20:23:16.555Z,17.10
2017-06-22T20:25:42.602Z,17.27
2017-06-22T20:28:08.657Z,18.77
2017-06-22T20:30:34.702Z,18.37
2017-06-22T20:33:01.495Z,16.90
2017-06-22T20:35:27.554Z,18.70
2017-06-22T20:37:53.605Z,20.57
2017-06-22T20:40:19.646Z,19.87
2017-06-22T20:42:45.689Z,17.73
2017-06-22T20:45:11.734Z,20.40
2017-06-22T20:47:37.781Z,18.80
2017-06-22T20:50:03.837Z,20.47
2017-06-22T20:52:29.890Z,20.10
2017-06-22T20:54:55.934Z,19.50
2017-06-22T20:57:21.978Z,18.83
2017-06-22T20:59:48.022Z,22.27
2017-06-22T21:02:14.065Z,20.73
2017-06-22T21:04:40.112Z,19.47
2017-06-22T21:07:06.163Z,20.40
2017-06-22T21:09:32.198Z,21.13
2017-06-22T21:11:58.244Z,22.20
2017-06-22T21:14:24.293Z,20.07
2017-06-22T21:16:50.333Z,21.37
2017-06-22T21:19:16.386Z,22.87
2017-06-22T21:21:42.447Z,21.07
2017-06-22T21:24:08.498Z,21.50
2017-06-22T21:26:34.564Z,21.67
2017-06-22T21:29:00.597Z,21.20
2017-06-22T21:31:26.646Z,21.10
2017-06-22T21:34:07.669Z,19.50
2017-06-22T21:36:33.740Z,21.30
2017-06-22T21:38:59.794Z,22.43
2017-06-22T21:41:25.829Z,20.90
2017-06-22T21:43:51.878Z,20.90
2017-06-22T21:46:17.922Z,19.53
2017-06-22T21:48:43.962Z,20.33
2017-06-22T21:51:10.011Z,20.83
2017-06-22T21:53:36.070Z,20.27
2017-06-22T21:56:02.130Z,20.97
2017-06-22T21:58:28.181Z,20.80
2017-06-22T22:00:54.250Z,19.40
2017-06-22T22:03:20.307Z,20.60
2017-06-22T22:05:46.362Z,21.13
2017-06-22T22:08:12.438Z,20.17
2017-06-22T22:10:38.487Z,19.73
2017-06-22T22:13:04.538Z,20.43
2017-06-22T22:15:30.601Z,20.33
2017-06-22T22:17:56.656Z,18.80
2017-06-22T22:20:22.698Z,19.90
2017-06-22T22:22:48.770Z,19.70
2017-06-22T22:25:14.833Z,18.03
2017-06-22T22:27:40.906Z,19.93
2017-06-22T22:30:06.970Z,18.30
2017-06-22T22:32:33.029Z,19.20
2017-06-22T22:34:59.082Z,18.43
2017-06-22T22:37:25.126Z,17.80
2017-06-22T22:39:51.177Z,18.70
2017-06-22T22:42:17.237Z,17.53
2017-06-22T22:44:43.301Z,19.20
2017-06-22T22:47:09.352Z,17.63
2017-06-22T22:49:35.398Z,17.40
2017-06-22T22:52:01.457Z,17.63
2017-06-22T22:54:27.506Z,17.63
2017-06-22T22:56:53.553Z,18.23
2017-06-22T22:59:19.600Z,18.23
2017-06-22T23:01:45.661Z,18.00
2017-06-22T23:04:11.706Z,16.50
2017-06-22T23:06:37.762Z,14.50
2017-06-22T23:09:03.838Z,16.60
2017-06-22T23:11:29.896Z,14.60
2017-06-22T23:13:55.946Z,13.87
2017-06-22T23:16:21.994Z,13.50
2017-06-22T23:18:48.038Z,13.40
2017-06-22T23:21:14.093Z,13.97
2017-06-22T23:23:40.162Z,14.33
2017-06-22T23:26:06.209Z,16.73
2017-06-22T23:28:32.253Z,15.23
2017-06-22T23:30:59.046Z,13.40
2017-06-22T23:33:25.098Z,14.23
2017-06-22T23:35:51.141Z,14.07
2017-06-22T23:38:17.194Z,14.17
2017-06-22T23:40:43.242Z,14.33
2017-06-22T23:43:09.299Z,14.30
2017-06-22T23:45:35.354Z,14.00
2017-06-22T23:48:01.402Z,14.33
2017-06-22T23:50:27.462Z,15.20
2017-06-22T23:52:53.489Z,17.17
2017-06-22T23:55:19.540Z,14.70
2017-06-22T23:57:45.570Z,14.20
